Time,TemperatureF,DewpointF,PressureIn,WindDirection,WindDirectionDegrees,WindSpeedMPH,WindSpeedGustMPH,Humidity,HourlyPrecipIn,Conditions,Clouds,dailyrainin,SoftwareType,DateUTC
2016-02-10 00:02:00,35.9,34.0,29.48,NW,324,0.0,6.0,94,0.00,,,0.00,weatherlink.com 1.10,2016-02-09 23:02:00,
2016-02-10 00:17:00,35.6,34.0,29.48,West,275,0.0,4.0,94,0.00,,,0.00,weatherlink.com 1.10,2016-02-09 23:17:00,
2016-02-10 00:32:00,35.5,34.0,29.49,SSW,212,4.0,7.0,93,0.00,,,0.00,weatherlink.com 1.10,2016-02-09 23:32:00,
2016-02-10 00:47:00,35.3,34.0,29.49,SW,229,0.0,7.0,94,0.00,,,0.00,weatherlink.com 1.10,2016-02-09 23:47:00,
2016-02-10 01:02:00,35.5,34.0,29.50,North,360,1.0,9.0,93,0.00,,,0.00,weatherlink.com 1.10,2016-02-10 00:02:00,
2016-02-10 01:17:00,35.6,34.0,29.49,North,360,0.0,7.0,93,0.00,,,0.00,weatherlink.com 1.10,2016-02-10 00:17:00,
2016-02-10 01:32:00,35.5,34.0,29.49,SW,223,2.0,6.0,93,0.00,,,0.00,weatherlink.com 1.10,2016-02-10 00:32:00,
2016-02-10 01:47:00,35.4,34.0,29.49,North,360,0.0,5.0,93,0.00,,,0.00,weatherlink.com 1.10,2016-02-10 00:47:00,
2016-02-10 02:02:00,35.3,33.0,29.49,WSW,250,1.0,11.0,92,0.00,,,0.00,weatherlink.com 1.10,2016-02-10 01:02:00,
2016-02-10 02:17:00,35.2,33.0,29.49,North,360,1.0,11.0,92,0.00,,,0.00,weatherlink.com 1.10,2016-02-10 01:17:00,
2016-02-10 02:32:00,35.2,33.0,29.50,SW,226,0.0,5.0,92,0.00,,,0.00,weatherlink.com 1.10,2016-02-10 01:32:00,
2016-02-10 02:47:00,35.2,33.0,29.52,West,259,0.0,6.0,93,0.00,,,0.00,weatherlink.com 1.10,2016-02-10 01:47:00,
2016-02-10 03:03:00,35.4,33.0,29.51,WSW,238,0.0,5.0,92,0.00,,,0.00,weatherlink.com 1.10,2016-02-10 02:03:00,
2016-02-10 03:17:00,35.3,33.0,29.52,WSW,253,0.0,2.0,92,0.00,,,0.00,weatherlink.com 1.10,2016-02-10 02:17:00,
2016-02-10 03:32:00,35.3,33.0,29.51,WSW,252,0.0,4.0,92,0.00,,,0.00,weatherlink.com 1.10,2016-02-10 02:32:00,
2016-02-10 03:47:00,35.3,33.0,29.51,WSW,240,3.0,5.0,92,0.00,,,0.00,weatherlink.com 1.10,2016-02-10 02:47:00,
2016-02-10 04:02:00,35.3,33.0,29.51,SW,228,3.0,9.0,92,0.00,,,0.00,weatherlink.com 1.10,2016-02-10 03:02:00,
2016-02-10 04:17:00,35.3,33.0,29.51,SSW,205,4.0,7.0,92,0.00,,,0.00,weatherlink.com 1.10,2016-02-10 03:17:00,
2016-02-10 04:32:00,35.4,33.0,29.51,WSW,254,3.0,9.0,92,0.00,,,0.00,weatherlink.com 1.10,2016-02-10 03:32:00,
2016-02-10 04:47:00,35.6,34.0,29.51,SW,222,3.0,4.0,92,0.00,,,0.00,weatherlink.com 1.10,2016-02-10 03:47:00,
2016-02-10 05:02:00,36.0,33.0,29.51,North,360,1.0,7.0,90,0.00,,,0.00,weatherlink.com 1.10,2016-02-10 04:02:00,
2016-02-10 05:17:00,36.2,34.0,29.51,WSW,244,2.0,9.0,90,0.00,,,0.00,weatherlink.com 1.10,2016-02-10 04:17:00,
2016-02-10 05:32:00,36.3,34.0,29.51,ENE,58,0.0,11.0,90,0.00,,,0.00,weatherlink.com 1.10,2016-02-10 04:32:00,
2016-02-10 05:47:00,36.3,33.0,29.52,SW,215,0.0,7.0,89,0.00,,,0.00,weatherlink.com 1.10,2016-02-10 04:47:00,
2016-02-10 06:02:00,36.1,34.0,29.52,North,360,0.0,7.0,90,0.00,,,0.00,weatherlink.com 1.10,2016-02-10 05:02:00,
2016-02-10 06:18:00,36.0,33.0,29.52,WSW,257,0.0,13.0,90,0.00,,,0.00,weatherlink.com 1.10,2016-02-10 05:18:00,
2016-02-10 06:33:00,35.7,33.0,29.52,North,360,5.0,10.0,90,0.00,,,0.00,weatherlink.com 1.10,2016-02-10 05:33:00,
2016-02-10 07:03:00,35.4,33.0,29.53,North,360,3.0,8.0,91,0.00,,,0.00,weatherlink.com 1.10,2016-02-10 06:03:00,
2016-02-10 07:18:00,35.2,33.0,29.53,SW,227,0.0,5.0,91,0.00,,,0.00,weatherlink.com 1.10,2016-02-10 06:18:00,
2016-02-10 07:33:00,35.2,33.0,29.54,WSW,246,1.0,8.0,91,0.00,,,0.00,weatherlink.com 1.10,2016-02-10 06:33:00,
2016-02-10 07:48:00,35.4,33.0,29.54,WSW,255,1.0,5.0,91,0.00,,,0.00,weatherlink.com 1.10,2016-02-10 06:48:00,
2016-02-10 08:03:00,35.2,33.0,29.55,SW,220,5.0,7.0,91,0.00,,,0.00,weatherlink.com 1.10,2016-02-10 07:03:00,
2016-02-10 08:18:00,35.2,33.0,29.55,SW,218,0.0,9.0,91,0.00,,,0.00,weatherlink.com 1.10,2016-02-10 07:18:00,
2016-02-10 08:33:00,35.0,33.0,29.56,SSE,155,0.0,4.0,91,0.00,,,0.00,weatherlink.com 1.10,2016-02-10 07:33:00,
2016-02-10 08:48:00,35.0,33.0,29.56,WSW,241,3.0,8.0,91,0.00,,,0.00,weatherlink.com 1.10,2016-02-10 07:48:00,
2016-02-10 09:03:00,35.5,33.0,29.56,North,360,0.0,6.0,91,0.00,,,0.00,weatherlink.com 1.10,2016-02-10 08:03:00,
2016-02-10 09:18:00,36.2,34.0,29.57,North,360,1.0,7.0,90,0.00,,,0.00,weatherlink.com 1.10,2016-02-10 08:18:00,
2016-02-10 09:33:00,36.5,34.0,29.57,North,360,3.0,10.0,89,0.00,,,0.00,weatherlink.com 1.10,2016-02-10 08:33:00,
2016-02-10 09:48:00,37.1,34.0,29.57,North,360,0.0,9.0,88,0.00,,,0.00,weatherlink.com 1.10,2016-02-10 08:48:00,
2016-02-10 10:03:00,37.7,35.0,29.57,West,262,2.0,6.0,88,0.00,,,0.00,weatherlink.com 1.10,2016-02-10 09:03:00,
2016-02-10 10:19:00,37.9,34.0,29.57,WSW,253,1.0,9.0,86,0.00,,,0.00,weatherlink.com 1.10,2016-02-10 09:19:00,
2016-02-10 10:34:00,38.7,35.0,29.58,North,360,2.0,6.0,86,0.00,,,0.00,weatherlink.com 1.10,2016-02-10 09:34:00,
2016-02-10 10:49:00,39.3,35.0,29.58,SW,221,3.0,12.0,85,0.00,,,0.00,weatherlink.com 1.10,2016-02-10 09:49:00,
2016-02-10 11:04:00,39.7,35.0,29.59,SW,229,2.0,9.0,84,0.00,,,0.00,weatherlink.com 1.10,2016-02-10 10:04:00,
2016-02-10 11:19:00,40.5,35.0,29.59,WSW,252,0.0,7.0,82,0.00,,,0.00,weatherlink.com 1.10,2016-02-10 10:19:00,
2016-02-10 11:34:00,40.6,35.0,29.59,WSW,250,2.0,10.0,81,0.00,,,0.00,weatherlink.com 1.10,2016-02-10 10:34:00,
2016-02-10 11:49:00,41.4,36.0,29.60,West,259,4.0,11.0,80,0.00,,,0.00,weatherlink.com 1.10,2016-02-10 10:49:00,
2016-02-10 12:04:00,42.2,36.0,29.60,North,360,1.0,5.0,79,0.00,,,0.00,weatherlink.com 1.10,2016-02-10 11:04:00,
2016-02-10 12:19:00,43.0,36.0,29.60,WSW,237,3.0,7.0,77,0.00,,,0.00,weatherlink.com 1.10,2016-02-10 11:19:00,
2016-02-10 12:34:00,42.5,35.0,29.60,WSW,257,3.0,10.0,76,0.00,,,0.00,weatherlink.com 1.10,2016-02-10 11:34:00,
2016-02-10 12:49:00,43.4,36.0,29.60,WSW,252,2.0,7.0,76,0.00,,,0.00,weatherlink.com 1.10,2016-02-10 11:49:00,
2016-02-10 13:04:00,43.1,36.0,29.60,WSW,250,0.0,10.0,75,0.00,,,0.00,weatherlink.com 1.10,2016-02-10 12:04:00,
2016-02-10 13:19:00,43.4,35.0,29.60,West,271,2.0,9.0,73,0.00,,,0.00,weatherlink.com 1.10,2016-02-10 12:19:00,
2016-02-10 13:34:00,43.6,37.0,29.60,North,360,2.0,11.0,76,0.00,,,0.00,weatherlink.com 1.10,2016-02-10 12:34:00,
2016-02-10 13:49:00,44.1,36.0,29.60,WSW,254,2.0,18.0,73,0.00,,,0.00,weatherlink.com 1.10,2016-02-10 12:49:00,
2016-02-10 14:04:00,43.8,36.0,29.60,ESE,123,0.0,7.0,73,0.00,,,0.00,weatherlink.com 1.10,2016-02-10 13:04:00,
2016-02-10 14:20:00,43.9,36.0,29.60,North,360,0.0,7.0,74,0.00,,,0.00,weatherlink.com 1.10,2016-02-10 13:20:00,
2016-02-10 14:35:00,44.2,36.0,29.60,WSW,242,1.0,7.0,73,0.00,,,0.00,weatherlink.com 1.10,2016-02-10 13:35:00,
2016-02-10 14:50:00,44.5,36.0,29.60,South,186,0.0,8.0,73,0.00,,,0.00,weatherlink.com 1.10,2016-02-10 13:50:00,
2016-02-10 15:05:00,44.3,36.0,29.60,WSW,241,2.0,12.0,72,0.00,,,0.00,weatherlink.com 1.10,2016-02-10 14:05:00,
2016-02-10 15:20:00,44.6,36.0,29.60,West,269,1.0,7.0,71,0.00,,,0.00,weatherlink.com 1.10,2016-02-10 14:20:00,
2016-02-10 15:35:00,44.3,35.0,29.60,North,360,2.0,11.0,70,0.00,,,0.00,weatherlink.com 1.10,2016-02-10 14:35:00,
2016-02-10 16:05:00,44.1,36.0,29.61,West,281,3.0,6.0,73,0.00,,,0.00,weatherlink.com 1.10,2016-02-10 15:05:00,
2016-02-10 16:20:00,43.6,35.0,29.62,West,277,0.0,11.0,71,0.00,,,0.00,weatherlink.com 1.10,2016-02-10 15:20:00,
2016-02-10 16:35:00,43.8,35.0,29.62,North,360,2.0,7.0,71,0.00,,,0.00,weatherlink.com 1.10,2016-02-10 15:35:00,
2016-02-10 16:50:00,43.9,36.0,29.62,WSW,242,1.0,4.0,73,0.00,,,0.00,weatherlink.com 1.10,2016-02-10 15:50:00,
2016-02-10 17:05:00,43.6,35.0,29.63,WSW,249,3.0,7.0,73,0.00,,,0.00,weatherlink.com 1.10,2016-02-10 16:05:00,
2016-02-10 17:35:00,42.0,37.0,29.65,NW,326,2.0,5.0,81,0.00,,,0.00,weatherlink.com 1.10,2016-02-10 16:35:00,
2016-02-10 17:50:00,41.0,37.0,29.66,WSW,252,6.0,9.0,85,0.00,,,0.00,weatherlink.com 1.10,2016-02-10 16:50:00,